• Join FlightAware (Why Join?)
  • Login
  • US Flag 
08:54PM EDT


 

Airport Tracker/Info


-or-


 

Live Flight TrackerFlight Track Log ✈ SWA1451 ✈ 25-Apr-2013 ✈ KMDW - KDEN

Flight Track Log - Related Links

Times and Time Zones

All times are in EDT time to prevent confusion due to time zone crossing. See the SWA1451 flight status page for this flight to view local times or setup timezone preferences in your user account.

Time Position Orientation Groundspeed Altitude Reporting Facility
EDT Latitude Longitude Course Direction KTS MPH feet Rate Location/Type
07:28AM 41.7667 -87.8000 246° West 155 178 2,900  Level Chicago TRACON
07:29AM 41.7500 -87.8500 246° West 182 209 5,300 2,580 Climbing Chicago TRACON
07:30AM 41.7597 -87.8894 288° West 184 212 6,800 3,900 Climbing Chicago Center
07:31AM 41.7722 -87.9731 281° West 223 257 11,200 2,640 Climbing Chicago Center
07:32AM 41.7836 -88.0644 280° West 246 283 12,300 1,800 Climbing Chicago Center
07:33AM 41.7950 -88.1672 278° West 280 322 15,000 2,220 Climbing Chicago Center
07:34AM 41.8031 -88.2781 276° West 301 346 16,900 3,000 Climbing Chicago Center
07:35AM 41.7969 -88.4172 267° West 326 375 21,200 3,120 Climbing Chicago Center
07:36AM 41.7767 -88.5419 258° West 343 395 23,300 2,460 Climbing Chicago Center
07:37AM 41.7600 -88.6711 260° West 354 407 26,300 2,580 Climbing Chicago Center
07:38AM 41.7511 -88.8081 265° West 370 426 28,600 2,160 Climbing Chicago Center
07:39AM 41.7397 -88.9503 264° West 386 444 30,700 2,340 Climbing Chicago Center
07:40AM 41.7281 -89.0933 264° West 390 449 33,400 2,460 Climbing Chicago Center
07:41AM 41.7156 -89.2650 264° West 389 448 35,900 2,220 Climbing Chicago Center
07:42AM 41.7050 -89.4056 264° West 383 441 38,000 1,740 Climbing Chicago Center
07:43AM 41.6939 -89.5419 264° West 373 429 39,500 960 Climbing Chicago Center
07:44AM 41.6828 -89.6817 264° West 382 440 40,000 240 Climbing Chicago Center
07:45AM 41.6703 -89.8231 263° West 384 442 40,000  Level Chicago Center
07:46AM 41.6586 -89.9619 264° West 380 437 40,000  Level Chicago Center
07:47AM 41.6458 -90.1019 263° West 380 437 40,000  Level Chicago Center
07:48AM 41.6322 -90.2683 264° West 379 436 40,000  Level Chicago Center
07:49AM 41.6186 -90.4083 263° West 380 437 40,000  Level Chicago Center
07:50AM 41.6056 -90.5450 263° West 374 430 40,000  Level Chicago Center
07:51AM 41.5956 -90.6667 264° West 372 428 40,000  Level Chicago Center
07:52AM 41.5803 -90.8283 263° West 369 425 40,000  Level Chicago Center
07:53AM 41.5678 -90.9647 263° West 372 428 40,000  Level Chicago Center
07:54AM 41.5547 -91.1006 263° West 371 427 40,000  Level Chicago Center
07:55AM 41.5408 -91.2367 262° West 373 429 40,000  Level Chicago Center
07:56AM 41.5272 -91.3731 262° West 372 428 40,000  Level Chicago Center
07:57AM 41.5147 -91.5092 263° West 372 428 40,000  Level Chicago Center
07:58AM 41.4969 -91.6739 262° West 375 432 40,000  Level Chicago Center
07:59AM 41.4839 -91.8125 263° West 378 435 40,000  Level Chicago Center
08:00AM 41.4692 -91.9517 262° West 381 438 40,000  Level Chicago Center
08:01AM 41.4556 -92.0911 263° West 381 438 40,000  Level Chicago Center
08:02AM 41.4386 -92.2286 261° West 382 440 40,000  Level Chicago Center
08:03AM 41.4217 -92.3878 262° West 384 442 40,000  Level Chicago Center
08:04AM 41.4069 -92.5286 262° West 388 447 40,000  Level Chicago Center
08:05AM 41.3925 -92.6672 262° West 384 442 40,000  Level Chicago Center
08:06AM 41.3892 -92.6958 261° West 383 441 40,000  Level Minneapolis Center
08:07AM 41.3706 -92.8619 262° West 382 440 40,000  Level Minneapolis Center
08:08AM 41.3586 -93.0019 264° West 383 441 40,000  Level Minneapolis Center
08:09AM 41.3528 -93.1678 267° West 379 436 40,000  Level Minneapolis Center
08:10AM 41.3458 -93.3044 266° West 376 433 40,000  Level Minneapolis Center
08:11AM 41.3408 -93.4414 267° West 376 433 40,000  Level Minneapolis Center
08:12AM 41.3350 -93.5753 267° West 370 426 40,000  Level Minneapolis Center
08:13AM 41.3281 -93.7111 266° West 370 426 40,000  Level Minneapolis Center
08:14AM 41.3206 -93.8450 266° West 369 425 40,000  Level Minneapolis Center
08:15AM 41.3161 -93.9772 267° West 367 422 40,000  Level Minneapolis Center
08:16AM 41.3092 -94.1408 267° West 372 428 40,000  Level Minneapolis Center
08:17AM 41.3006 -94.2822 265° West 373 429 40,000  Level Minneapolis Center
08:18AM 41.2936 -94.4200 266° West 374 430 40,000  Level Minneapolis Center
08:19AM 41.2861 -94.5567 266° West 372 428 40,000  Level Minneapolis Center
08:20AM 41.2794 -94.6933 266° West 371 427 40,000  Level Minneapolis Center
08:21AM 41.2708 -94.8286 265° West 369 425 40,000  Level Minneapolis Center
08:22AM 41.2631 -94.9658 266° West 371 427 40,000  Level Minneapolis Center
08:23AM 41.2553 -95.1011 266° West 370 426 40,000  Level Minneapolis Center
08:24AM 41.2469 -95.2378 265° West 370 426 40,000  Level Minneapolis Center
08:25AM 41.2356 -95.4022 265° West 372 428 40,000  Level Minneapolis Center
08:26AM 41.2261 -95.5406 265° West 375 432 40,000  Level Minneapolis Center
08:27AM 41.2197 -95.6756 266° West 370 426 40,000  Level Minneapolis Center
08:29AM 41.2108 -95.8133 265° West 373 429 40,000  Level Minneapolis Center
08:30AM 41.1986 -95.9772 264° West 372 428 40,000  Level Minneapolis Center
08:31AM 41.1903 -96.1136 265° West 370 426 40,000  Level Minneapolis Center
08:32AM 41.1808 -96.2486 265° West 369 425 40,000  Level Minneapolis Center
08:33AM 41.1703 -96.3928 264° West 368 423 40,000  Level Minneapolis Center
08:34AM 41.1611 -96.5269 265° West 365 420 40,000  Level Minneapolis Center
08:35AM 41.1506 -96.6606 264° West 365 420 40,000  Level Minneapolis Center
08:36AM 41.1406 -96.7942 264° West 364 419 40,000  Level Minneapolis Center
08:37AM 41.1283 -96.9542 264° West 364 419 40,000  Level Minneapolis Center
08:38AM 41.1169 -97.0886 264° West 366 421 40,000  Level Minneapolis Center
08:39AM 41.1069 -97.2250 264° West 369 425 40,000  Level Minneapolis Center
08:40AM 41.0978 -97.3611 265° West 371 427 40,000  Level Minneapolis Center
08:41AM 41.0869 -97.4886 264° West 372 428 40,000  Level Minneapolis Center
08:42AM 41.1028 -97.6436 278° West 368 423 40,000  Level Minneapolis Center
08:43AM 41.1711 -97.7456 312° West 369 425 40,000  Level Minneapolis Center
08:44AM 41.2411 -97.8469 313° West 373 429 40,000  Level Minneapolis Center
08:45AM 41.2614 -97.9708 282° West 367 422 40,000  Level Minneapolis Center
08:46AM 41.2397 -98.1058 258° West 371 427 40,000  Level Minneapolis Center
08:47AM 41.2178 -98.2392 258° West 370 426 40,000  Level Minneapolis Center
08:48AM 41.1953 -98.3719 257° West 369 425 40,000  Level Minneapolis Center
08:49AM 41.1717 -98.5147 258° West 372 428 40,000  Level Minneapolis Center
08:50AM 41.1492 -98.6478 257° West 370 426 40,000 -300 Level Minneapolis Center
08:51AM 41.1272 -98.7811 258° West 370 426 39,500 -840 Descending Minneapolis Center
08:52AM 41.0997 -98.9375 257° West 366 421 38,300 -780 Descending Minneapolis Center
08:53AM 41.0775 -99.0633 257° West 357 411 38,000 -180 Descending Minneapolis Center
08:54AM 41.0550 -99.1939 257° West 351 404 38,000  Level Minneapolis Center
08:55AM 41.0333 -99.3178 257° West 347 399 38,000  Level Minneapolis Center
08:56AM 41.0106 -99.4417 256° West 345 397 38,000  Level Denver Center
08:58AM 40.9850 -99.5883 257° West 342 394 38,000  Level Denver Center
08:59AM 40.9631 -99.7106 257° West 341 392 38,000  Level Denver Center
09:00AM 40.9397 -99.8333 256° West 345 397 38,000  Level Denver Center
09:01AM 40.9181 -99.9511 256° West 346 398 38,000  Level Denver Center
09:02AM 40.8928 -100.0906 257° West 349 402 38,000  Level Denver Center
09:03AM 40.8708 -100.2097 256° West 348 400 38,000  Level Denver Center
09:04AM 40.8481 -100.3300 256° West 350 403 38,000  Level Denver Center
09:05AM 40.8222 -100.4686 256° West 350 403 38,000  Level Denver Center
09:06AM 40.8000 -100.5886 256° West 349 402 38,000  Level Denver Center
09:07AM 40.7778 -100.7064 256° West 349 402 38,000  Level Denver Center
09:08AM 40.7567 -100.8347 258° West 351 404 38,000  Level Denver Center
09:09AM 40.7342 -100.9744 258° West 348 400 38,000  Level Denver Center
09:10AM 40.7142 -101.0936 258° West 347 399 38,000  Level Denver Center
09:11AM 40.6931 -101.2136 257° West 350 403 38,000  Level Denver Center
09:12AM 40.6683 -101.3547 257° West 353 406 38,000  Level Denver Center
09:13AM 40.6472 -101.4747 257° West 352 405 38,000  Level Denver Center
09:14AM 40.6256 -101.5953 257° West 353 406 38,000  Level Denver Center
09:15AM 40.6000 -101.7369 257° West 354 407 38,000  Level Denver Center
09:16AM 40.5781 -101.8578 257° West 355 409 38,000  Level Denver Center
09:17AM 40.5556 -101.9783 256° West 356 410 38,000  Level Denver Center
09:18AM 40.5303 -102.1203 257° West 357 411 38,000  Level Denver Center
09:19AM 40.5092 -102.2400 257° West 353 406 38,000  Level Denver Center
09:20AM 40.4858 -102.3625 256° West 358 412 38,000  Level Denver Center
09:21AM 40.4592 -102.5039 256° West 359 413 38,000  Level Denver Center
09:22AM 40.4367 -102.6267 257° West 362 417 38,000  Level Denver Center
09:23AM 40.4128 -102.7564 256° West 363 418 38,000  Level Denver Center
09:24AM 40.3878 -102.8867 256° West 365 420 38,000 -720 Level Denver Center
09:25AM 40.3636 -103.0161 256° West 363 418 36,600 -2,400 Descending Denver Center
09:26AM 40.3383 -103.1444 256° West 361 415 33,200 -3,360 Descending Denver Center
09:27AM 40.3136 -103.2761 256° West 367 422 29,800 -3,060 Descending Denver Center
09:28AM 40.2878 -103.4039 255° West 362 417 27,000 -2,760 Descending Denver Center
09:29AM 40.2625 -103.5350 256° West 366 421 24,200 -2,760 Descending Denver Center
09:30AM 40.2378 -103.6617 256° West 358 412 21,500 -2,520 Descending Denver Center
09:31AM 40.2119 -103.7994 256° West 351 404 19,100 -1,560 Descending Denver Center
09:32AM 40.2047 -103.9067 265° West 295 339 18,400 -1,020 Descending Denver Center
09:33AM 40.2156 -104.0144 278° West 299 344 17,100 -1,680 Descending Denver Center
09:34AM 40.2250 -104.1250 276° West 287 330 15,100 -1,800 Descending Denver Center
09:35AM 40.2364 -104.2500 277° West 283 326 13,100 -1,200 Descending Denver Center
09:36AM 40.2331 -104.3425 267° West 258 297 12,400 -840 Descending Denver Center
09:37AM 40.2078 -104.4233 248° West 238 274 11,400 -1,140 Descending Denver Center
09:38AM 40.1836 -104.5033 248° West 236 272 10,100 -1,140 Descending Denver Center
09:39AM 40.1467 -104.5775 237° Southwest 242 278 9,100 -720 Descending Denver Center
09:40AM 40.1000 -104.6167 213° Southwest 238 274 8,900 -480 Descending Denver TRACON
09:41AM 40.0500 -104.6500 207° Southwest 217 250 8,300 -660 Descending Denver TRACON
09:41AM 40.0306 -104.6603 202° Southwest 220 253 8,100 -900 Descending Denver Center
09:42AM 39.9800 -104.6861 201° Southwest 196 226 7,200 -960 Descending Denver Center
09:43AM 39.9325 -104.6867 181° South 168 193 6,200 -900 Descending Denver Center
09:44AM 39.8936 -104.6872 181° South 131 151 5,400 -840 Descending Denver Center
09:47AM 39.8617 -104.6732 North  Level Estimated
09:54AM 39.8617 -104.6732 North  Level Estimated
09:55AM 39.8617 -104.6732 North  Level Estimated